Time;durP1;ratioP1;P1;durP2;ratioP2;P2;SDS_P1;SDS_P2;PMS_P1;PMS_P2;Temp;Humidity;BMP_temperature;BMP_pressure;BME280_temperature;BME280_humidity;BME280_pressure;Samples;Min_cycle;Max_cycle;Signal;HPM_P1;HPM_P2
2023/10/09 19:51:55;;;;;;;15.48;3.80;;;16.80;99.90;;;;;;5072769;28;20508;-68
2023/10/09 19:54:21;;;;;;;9.13;3.95;;;16.70;99.90;;;;;;5065661;28;20032;-68
2023/10/09 19:56:47;;;;;;;5.82;3.70;;;16.70;99.90;;;;;;5062608;28;20025;-68
2023/10/09 19:59:15;;;;;;;8.52;3.10;;;16.70;99.90;;;;;;5066272;28;20029;-68
2023/10/09 20:01:43;;;;;;;;;;;16.60;99.90;;;;;;5064348;28;20036;-68
2023/10/09 20:04:08;;;;;;;13.13;4.55;;;16.70;99.90;;;;;;5065957;28;20312;-66
2023/10/09 20:06:35;;;;;;;15.50;4.88;;;16.60;99.90;;;;;;5058631;28;20113;-67
2023/10/09 20:09:11;;;;;;;18.65;7.13;;;16.70;99.90;;;;;;5061376;28;20021;-67
2023/10/09 20:11:38;;;;;;;20.65;5.78;;;16.60;99.90;;;;;;5063084;28;20020;-68
2023/10/09 20:14:04;;;;;;;12.55;3.67;;;16.70;99.90;;;;;;5063453;28;20025;-67
2023/10/09 20:16:36;;;;;;;10.38;3.60;;;16.60;99.90;;;;;;5063363;28;20040;-67
2023/10/09 20:19:08;;;;;;;9.05;3.83;;;16.70;99.90;;;;;;5059135;28;20416;-67
2023/10/09 20:21:35;;;;;;;19.30;5.00;;;16.70;99.90;;;;;;5059122;28;20037;-67
2023/10/09 20:24:03;;;;;;;7.72;3.25;;;16.60;99.90;;;;;;5063370;28;20611;-67
2023/10/09 20:26:31;;;;;;;11.75;3.83;;;16.60;99.90;;;;;;5061286;28;20033;-68
2023/10/09 20:28:59;;;;;;;;;;;16.60;99.90;;;;;;5059327;28;20029;-68
2023/10/09 20:31:27;;;;;;;14.32;4.47;;;16.60;99.90;;;;;;5055126;28;19917;-68
2023/10/09 20:33:57;;;;;;;7.22;3.95;;;16.70;99.90;;;;;;5055943;28;20179;-67
2023/10/09 20:36:27;;;;;;;9.45;3.83;;;16.60;99.90;;;;;;5062178;28;20580;-67
2023/10/09 20:38:54;;;;;;;13.98;4.07;;;16.60;99.90;;;;;;5058560;28;20024;-68
2023/10/09 20:41:23;;;;;;;16.30;3.92;;;16.60;99.90;;;;;;5057092;28;20136;-67
2023/10/09 20:43:49;;;;;;;9.32;4.00;;;16.60;99.90;;;;;;5063469;28;20058;-68
2023/10/09 20:46:15;;;;;;;8.48;4.20;;;16.50;99.90;;;;;;5062562;28;20035;-67
2023/10/09 20:48:44;;;;;;;8.43;3.28;;;16.60;99.90;;;;;;5059693;28;20020;-68
2023/10/09 20:51:16;;;;;;;11.32;3.53;;;16.60;99.90;;;;;;5056936;28;20561;-67
2023/10/09 20:53:42;;;;;;;15.93;3.78;;;16.50;99.90;;;;;;5063893;28;20390;-68
2023/10/09 20:56:11;;;;;;;10.32;3.55;;;16.50;99.90;;;;;;5061105;28;20029;-68
2023/10/09 20:58:41;;;;;;;9.60;3.38;;;16.50;99.90;;;;;;5059812;28;20075;-74
2023/10/09 21:01:17;;;;;;;7.65;3.28;;;16.50;99.90;;;;;;5050591;28;20021;-74
2023/10/09 21:03:45;;;;;;;7.53;2.75;;;16.50;99.90;;;;;;5047488;28;20033;-75
2023/10/09 21:06:12;;;;;;;10.90;3.33;;;16.50;99.90;;;;;;5046615;28;20558;-75
2023/10/09 21:08:40;;;;;;;8.35;3.38;;;16.60;99.90;;;;;;5050925;28;20109;-75
2023/10/09 21:11:08;;;;;;;21.50;6.15;;;16.50;99.90;;;;;;5039280;28;20031;-73
2023/10/09 21:13:35;;;;;;;9.27;2.75;;;16.50;99.90;;;;;;5045984;28;20025;-74
2023/10/09 21:16:11;;;;;;;9.57;2.92;;;16.50;99.90;;;;;;5045927;28;20100;-74
2023/10/09 21:18:38;;;;;;;11.70;3.90;;;16.50;99.90;;;;;;5047163;28;20036;-74
2023/10/09 21:21:08;;;;;;;8.27;3.28;;;16.40;99.90;;;;;;5048830;28;20044;-74
2023/10/09 21:23:37;;;;;;;8.68;3.50;;;16.50;99.90;;;;;;5050207;28;20037;-74
2023/10/09 21:26:03;;;;;;;9.93;3.00;;;16.40;99.90;;;;;;5047021;28;20617;-73
2023/10/09 21:28:29;;;;;;;11.57;3.00;;;16.50;99.90;;;;;;5049737;28;20029;-73
2023/10/09 21:30:58;;;;;;;12.80;3.33;;;16.40;99.90;;;;;;5041388;28;20184;-73
2023/10/09 21:33:23;;;;;;;6.55;2.78;;;16.40;99.90;;;;;;5050742;28;20115;-74
2023/10/09 21:35:49;;;;;;;7.72;2.67;;;16.40;99.90;;;;;;5044346;28;20162;-75
2023/10/09 21:38:15;;;;;;;6.88;3.15;;;16.40;99.90;;;;;;5045923;28;20029;-74
2023/10/09 21:40:41;;;;;;;7.40;2.88;;;16.40;99.90;;;;;;5043252;28;20052;-75
2023/10/09 21:43:07;;;;;;;7.70;2.92;;;16.30;99.90;;;;;;5046766;28;20050;-75
2023/10/09 21:45:37;;;;;;;15.70;3.67;;;16.30;99.90;;;;;;5050591;28;21372;-74
2023/10/09 21:48:03;;;;;;;8.45;2.70;;;16.30;99.90;;;;;;5044190;28;20033;-74
2023/10/09 21:50:29;;;;;;;11.18;2.75;;;16.30;99.90;;;;;;5048532;28;20032;-74
2023/10/09 21:52:56;;;;;;;6.82;2.55;;;16.30;99.90;;;;;;5044889;28;20442;-74
2023/10/09 21:55:31;;;;;;;8.52;2.92;;;16.30;99.90;;;;;;5047391;28;20052;-75
2023/10/09 21:57:59;;;;;;;7.40;2.72;;;16.30;99.90;;;;;;5046222;28;20421;-74
2023/10/09 22:00:32;;;;;;;8.38;3.35;;;16.30;99.90;;;;;;5047255;28;20061;-75
2023/10/09 22:03:00;;;;;;;7.03;2.40;;;16.30;99.90;;;;;;5050489;28;20040;-75
2023/10/09 22:05:26;;;;;;;11.68;2.75;;;16.30;99.90;;;;;;5050600;28;20039;-74
2023/10/09 22:07:52;;;;;;;8.35;3.15;;;16.30;99.90;;;;;;5049140;28;20032;-75
2023/10/09 22:10:17;;;;;;;6.47;2.67;;;16.30;99.90;;;;;;5047348;28;20143;-75
2023/10/09 22:12:44;;;;;;;8.45;3.03;;;16.30;99.90;;;;;;5046220;28;20029;-75
2023/10/09 22:15:13;;;;;;;8.35;3.22;;;16.30;99.90;;;;;;5048224;28;20384;-75
2023/10/09 22:17:45;;;;;;;6.68;3.47;;;16.30;99.90;;;;;;5048414;28;20024;-74
2023/10/09 22:20:16;;;;;;;8.15;2.90;;;16.30;99.90;;;;;;5047623;28;20025;-74
2023/10/09 22:22:45;;;;;;;11.57;2.90;;;16.30;99.90;;;;;;5048255;28;20033;-75
2023/10/09 22:25:15;;;;;;;6.65;2.92;;;16.30;99.90;;;;;;5048509;28;20032;-75
2023/10/09 22:27:41;;;;;;;5.97;2.58;;;16.30;99.90;;;;;;5050439;28;20037;-74
2023/10/09 22:30:18;;;;;;;6.03;3.05;;;16.30;99.90;;;;;;5050620;28;20545;-74
2023/10/09 22:32:47;;;;;;;12.23;3.00;;;16.40;99.90;;;;;;5048212;28;20086;-74
2023/10/09 22:35:18;;;;;;;10.80;2.97;;;16.40;99.90;;;;;;5050130;28;20028;-74
2023/10/09 22:37:44;;;;;;;7.30;2.28;;;16.50;99.90;;;;;;5047484;28;20365;-74
2023/10/09 22:40:28;;;;;;;7.95;3.03;;;16.40;99.90;;;;;;5049079;28;20091;-74
2023/10/09 22:42:56;;;;;;;8.20;2.97;;;16.40;99.90;;;;;;5048580;28;20108;-74
2023/10/09 22:45:31;;;;;;;9.90;2.45;;;16.30;99.90;;;;;;5045554;28;20163;-74
2023/10/09 22:48:03;;;;;;;6.60;2.33;;;16.40;99.90;;;;;;5050599;28;20123;-74
2023/10/09 22:50:34;;;;;;;4.47;1.75;;;16.30;99.90;;;;;;5050344;28;20048;-74
2023/10/09 22:53:32;;;;;;;6.95;2.42;;;16.30;99.90;;;;;;5047499;28;20040;-74
2023/10/09 22:56:01;;;;;;;3.97;2.13;;;16.30;99.90;;;;;;5045927;28;20029;-74
2023/10/09 22:58:29;;;;;;;8.35;2.20;;;16.30;99.90;;;;;;5047587;28;20751;-74
2023/10/09 23:01:00;;;;;;;4.15;2.00;;;16.30;99.90;;;;;;5049758;28;20029;-74
2023/10/09 23:03:28;;;;;;;9.32;1.83;;;16.30;99.90;;;;;;5049883;28;20616;-75
2023/10/09 23:06:00;;;;;;;6.40;1.73;;;16.30;99.90;;;;;;5047824;28;20432;-74
2023/10/09 23:08:30;;;;;;;4.13;1.70;;;16.30;99.90;;;;;;5051202;28;20029;-74
2023/10/09 23:11:09;;;;;;;4.13;1.35;;;16.20;99.90;;;;;;5043980;28;20366;-75
2023/10/09 23:14:14;;;;;;;6.43;2.17;;;16.20;99.90;;;;;;5047846;28;20021;-75
2023/10/09 23:24:49;;;;;;;4.93;1.38;;;16.30;99.90;;;;;;5049906;28;20087;-74
2023/10/09 23:32:51;;;;;;;5.18;1.50;;;16.30;99.90;;;;;;5039945;28;20113;-74
2023/10/09 23:35:20;;;;;;;2.88;1.58;;;16.30;99.90;;;;;;5047231;28;20020;-74
2023/10/09 23:38:31;;;;;;;5.22;2.10;;;16.40;99.90;;;;;;5053139;28;20033;-74
2023/10/09 23:40:45;;;;;;;6.32;3.00;;;16.30;99.90;;;;;;5046796;28;20112;-75
2023/10/09 23:43:27;;;;;;;13.63;7.93;;;16.20;99.90;;;;;;5038167;28;20151;-74
2023/10/09 23:46:00;;;;;;;10.32;3.00;;;16.20;99.90;;;;;;5048735;28;20033;-74
2023/10/09 23:48:32;;;;;;;8.40;2.30;;;16.20;99.90;;;;;;5047165;28;20448;-74
2023/10/09 23:51:02;;;;;;;6.07;2.80;;;16.20;99.90;;;;;;5044131;28;20024;-75
2023/10/09 23:53:46;;;;;;;12.38;2.20;;;16.20;99.90;;;;;;5045758;28;20487;-74
2023/10/09 23:56:12;;;;;;;7.65;2.20;;;16.20;99.90;;;;;;5041944;28;20594;-74
2023/10/09 23:58:39;;;;;;;6.28;2.63;;;16.20;99.90;;;;;;5045067;28;20032;-74
